Terminal Aerodrome Forecast
Issued by NWS Greer, SC

Home | Current Version | Previous Version | Text Only | Print | Product List | Glossary On
Versions: 1 2 3 4 5 6 7 8 9 10 11 12 13 14 15 16 17 18 19 20 21 22 23 24 25 26 27 28 29 30 31 32 33 34 35 36 37 38 39 40 41 42 43 44 45 46 47 48 49 50
000
FTUS42 KGSP 051518 AAC
TAFCLT
TAF AMD
KCLT 051518Z 0515/0612 07010KT P6SM BKN025
      TEMPO 0515/0519 SCT025 BKN035
     FM051900 04012KT P6SM BKN035
      TEMPO 0521/0601 4SM TSRA BKN025CB
     FM060100 05011KT P6SM BKN050
     FM060600 05008KT P6SM OVC025
     FM060900 05007KT P6SM OVC015=

USA.gov is the U.S. government's official web portal to all federal, state and local government web resources and services.